createdAt,value
2023-09-15T00:03:46.203Z,22.02
2023-09-15T00:08:48.727Z,22.10
2023-09-15T00:13:52.089Z,21.28
2023-09-15T00:18:54.235Z,21.16
2023-09-15T00:23:56.370Z,20.71
2023-09-15T00:28:58.536Z,20.99
2023-09-15T00:39:03.086Z,21.21
2023-09-15T00:44:05.451Z,21.07
2023-09-15T00:49:07.913Z,21.78
2023-09-15T00:54:13.310Z,21.45
2023-09-15T00:59:15.917Z,21.15
2023-09-15T01:04:19.571Z,21.09
2023-09-15T01:09:24.026Z,21.32
2023-09-15T01:14:27.270Z,21.75
2023-09-15T01:19:44.084Z,20.94
2023-09-15T01:25:32.200Z,21.22
2023-09-15T01:30:35.108Z,20.75
2023-09-15T01:35:37.304Z,20.56
2023-09-15T01:40:39.547Z,20.40
2023-09-15T01:45:41.716Z,20.66
2023-09-15T01:50:44.934Z,20.77
2023-09-15T01:55:49.894Z,19.98
2023-09-15T02:00:53.419Z,19.55
2023-09-15T02:05:57.227Z,19.39
2023-09-15T02:10:59.558Z,18.98
2023-09-15T02:16:01.946Z,19.13
2023-09-15T02:21:05.070Z,19.53
2023-09-15T02:26:07.551Z,20.28
2023-09-15T02:31:09.970Z,19.73
2023-09-15T02:36:12.682Z,19.86
2023-09-15T02:41:15.542Z,20.09
2023-09-15T02:46:18.193Z,20.82
2023-09-15T02:51:20.627Z,19.82
2023-09-15T02:56:25.290Z,20.67
2023-09-15T03:01:28.231Z,20.83
2023-09-15T03:06:30.851Z,20.54
2023-09-15T03:11:33.199Z,21.00
2023-09-15T03:16:45.387Z,20.31
2023-09-15T03:21:48.046Z,19.56
2023-09-15T03:26:51.152Z,19.52
2023-09-15T03:31:53.630Z,19.94
2023-09-15T03:36:55.980Z,20.39
2023-09-15T03:41:58.260Z,20.91
2023-09-15T03:47:01.957Z,20.87
2023-09-15T03:52:04.687Z,20.67
2023-09-15T03:57:06.829Z,19.44
2023-09-15T04:02:10.018Z,18.98
2023-09-15T04:07:13.926Z,20.14
2023-09-15T04:12:16.128Z,20.21
2023-09-15T04:17:19.319Z,19.96
2023-09-15T04:22:22.769Z,18.78
2023-09-15T04:27:24.920Z,18.37
2023-09-15T04:32:29.946Z,18.00
2023-09-15T04:37:32.449Z,18.37
2023-09-15T04:42:35.161Z,19.33
2023-09-15T04:47:39.032Z,19.02
2023-09-15T04:53:08.521Z,20.31
2023-09-15T04:58:12.901Z,20.71
2023-09-15T05:03:17.246Z,20.69
2023-09-15T05:08:19.629Z,20.67
2023-09-15T05:13:21.930Z,20.83
2023-09-15T05:18:24.285Z,20.99
2023-09-15T05:23:26.543Z,20.66
2023-09-15T05:28:28.726Z,20.41
2023-09-15T05:33:31.003Z,20.43
2023-09-15T05:38:33.299Z,21.01
2023-09-15T05:43:35.617Z,20.75
2023-09-15T05:48:37.850Z,21.08
2023-09-15T05:53:40.059Z,21.40
2023-09-15T05:58:42.871Z,21.19
2023-09-15T06:03:45.101Z,21.45
2023-09-15T06:08:47.513Z,20.91
2023-09-15T06:13:50.085Z,20.83
2023-09-15T06:18:52.276Z,20.76
2023-09-15T06:23:54.593Z,20.23
2023-09-15T06:28:58.189Z,19.87
2023-09-15T06:34:00.558Z,20.68
2023-09-15T06:39:03.360Z,21.60
2023-09-15T06:44:06.019Z,21.67
2023-09-15T06:49:09.598Z,21.80
2023-09-15T06:54:13.507Z,22.39
2023-09-15T06:59:15.748Z,22.69
2023-09-15T07:04:18.908Z,22.76
2023-09-15T07:09:21.603Z,20.77
2023-09-15T07:14:23.756Z,22.52
2023-09-15T07:19:26.038Z,23.57
2023-09-15T07:24:28.231Z,23.55
2023-09-15T07:29:31.143Z,23.38
2023-09-15T07:34:33.347Z,24.05
2023-09-15T07:39:35.599Z,24.64
2023-09-15T07:44:39.117Z,25.02
2023-09-15T07:49:42.004Z,24.98
2023-09-15T07:54:44.364Z,25.38
2023-09-15T07:59:47.307Z,25.83
2023-09-15T08:04:50.515Z,26.21
2023-09-15T08:09:53.434Z,26.54
2023-09-15T08:14:55.614Z,26.68
2023-09-15T08:19:58.113Z,27.38
2023-09-15T08:25:02.514Z,26.97
2023-09-15T08:30:06.826Z,27.52
2023-09-15T08:35:09.308Z,27.95
2023-09-15T08:40:13.663Z,28.22
2023-09-15T08:45:16.562Z,28.75
2023-09-15T08:50:19.932Z,28.49
2023-09-15T08:55:22.442Z,29.16
2023-09-15T09:00:25.334Z,29.45
2023-09-15T09:05:32.226Z,30.13
2023-09-15T09:10:34.594Z,30.51
2023-09-15T09:15:38.653Z,31.26
2023-09-15T09:20:41.365Z,31.17
2023-09-15T09:25:44.139Z,30.29
2023-09-15T09:30:46.723Z,30.21
2023-09-15T09:35:49.992Z,27.89
2023-09-15T09:40:53.631Z,26.67
2023-09-15T09:45:56.507Z,26.19
2023-09-15T09:50:59.879Z,28.30
2023-09-15T09:56:04.552Z,28.84
2023-09-15T10:01:08.013Z,27.06
2023-09-15T10:06:11.400Z,26.49
2023-09-15T10:11:14.542Z,26.26
2023-09-15T10:16:17.985Z,26.93
2023-09-15T10:21:21.064Z,28.09
2023-09-15T10:26:24.227Z,30.02
2023-09-15T10:31:30.195Z,30.41
2023-09-15T10:41:37.856Z,27.49
2023-09-15T10:46:41.993Z,28.26
2023-09-15T10:51:53.654Z,30.91
2023-09-15T10:56:56.837Z,32.61
2023-09-15T11:02:00.014Z,33.67
2023-09-15T11:07:06.313Z,32.90
2023-09-15T11:12:09.545Z,33.04
2023-09-15T11:17:12.331Z,33.15
2023-09-15T11:22:15.069Z,33.49
2023-09-15T11:27:17.806Z,34.47
2023-09-15T11:32:21.011Z,35.31
2023-09-15T11:37:23.616Z,34.27
2023-09-15T11:42:25.943Z,34.55
2023-09-15T11:47:32.477Z,33.79
2023-09-15T11:52:34.993Z,31.03
2023-09-15T11:57:37.453Z,29.96
2023-09-15T12:02:39.719Z,28.97
2023-09-15T12:07:44.755Z,29.20
2023-09-15T12:12:47.044Z,28.80
2023-09-15T12:17:49.266Z,28.44
2023-09-15T12:22:55.049Z,27.95
2023-09-15T12:27:57.713Z,27.93
2023-09-15T12:33:00.434Z,27.26
2023-09-15T12:38:03.444Z,27.55
2023-09-15T12:43:07.244Z,26.94
2023-09-15T12:48:10.527Z,26.97
2023-09-15T12:53:13.208Z,27.53
2023-09-15T12:58:15.998Z,27.25
2023-09-15T13:03:22.500Z,27.34
2023-09-15T13:08:25.581Z,27.21
2023-09-15T13:13:28.161Z,27.52
2023-09-15T13:18:30.707Z,28.11
2023-09-15T13:23:33.320Z,27.56
2023-09-15T13:28:36.109Z,31.27
2023-09-15T13:33:38.672Z,35.46
2023-09-15T13:38:42.385Z,37.13
2023-09-15T13:43:45.021Z,37.58
2023-09-15T13:48:47.889Z,37.57
2023-09-15T13:53:50.943Z,38.18
2023-09-15T13:58:55.200Z,38.74
2023-09-15T14:03:58.919Z,38.46
2023-09-15T14:09:01.497Z,38.63
2023-09-15T14:14:04.093Z,38.71
2023-09-15T14:19:06.671Z,38.20
2023-09-15T14:24:09.313Z,37.15
2023-09-15T14:29:14.430Z,35.48
2023-09-15T14:34:17.876Z,34.65
2023-09-15T14:39:20.520Z,34.44
2023-09-15T14:44:23.523Z,35.38
2023-09-15T14:49:27.381Z,36.24
2023-09-15T14:54:30.118Z,34.29
2023-09-15T14:59:32.687Z,32.35
2023-09-15T15:04:35.462Z,31.07
2023-09-15T15:09:38.592Z,30.29
2023-09-15T15:14:41.151Z,29.71
2023-09-15T15:19:46.970Z,29.79
2023-09-15T15:24:49.815Z,29.07
2023-09-15T15:29:52.923Z,28.44
2023-09-15T15:34:55.273Z,28.33
2023-09-15T15:39:58.388Z,28.04
2023-09-15T15:45:00.746Z,28.18
2023-09-15T15:50:02.956Z,28.07
2023-09-15T15:55:06.064Z,27.69
2023-09-15T16:00:09.384Z,27.92
2023-09-15T16:05:13.222Z,27.70
2023-09-15T16:10:16.173Z,27.59
2023-09-15T16:15:18.783Z,27.43
2023-09-15T16:20:22.305Z,27.30
2023-09-15T16:25:24.816Z,27.39
2023-09-15T16:30:27.399Z,27.57
2023-09-15T16:35:30.041Z,27.20
2023-09-15T16:40:35.354Z,27.08
2023-09-15T16:45:37.925Z,26.83
2023-09-15T16:50:40.635Z,26.28
2023-09-15T16:55:50.777Z,26.36
2023-09-15T17:00:55.883Z,26.23
2023-09-15T17:05:58.536Z,26.17
2023-09-15T17:11:03.306Z,26.00
2023-09-15T17:16:05.941Z,25.94
2023-09-15T17:21:08.667Z,25.49
2023-09-15T17:26:11.806Z,25.09
2023-09-15T17:31:14.540Z,24.32
2023-09-15T17:36:17.137Z,24.13
2023-09-15T17:41:19.431Z,24.17
2023-09-15T17:46:21.620Z,24.05
2023-09-15T17:51:26.171Z,24.15
2023-09-15T17:56:28.365Z,24.17
2023-09-15T18:01:30.624Z,23.67
2023-09-15T18:06:32.810Z,23.49
2023-09-15T18:11:36.022Z,23.62
2023-09-15T18:16:38.203Z,23.71
2023-09-15T18:21:40.430Z,23.18
2023-09-15T18:26:42.735Z,23.17
2023-09-15T18:31:45.872Z,22.91
2023-09-15T18:36:48.093Z,23.05
2023-09-15T18:41:50.460Z,22.95
2023-09-15T18:46:53.794Z,22.99
2023-09-15T18:51:56.007Z,22.97
2023-09-15T18:56:58.371Z,23.28
2023-09-15T19:02:00.554Z,23.53
2023-09-15T19:07:02.774Z,23.63
2023-09-15T19:12:05.581Z,23.65
2023-09-15T19:17:07.781Z,24.09
2023-09-15T19:22:09.984Z,23.64
2023-09-15T19:27:12.169Z,24.02
2023-09-15T19:32:14.361Z,23.84
2023-09-15T19:37:16.612Z,23.60
2023-09-15T19:42:18.872Z,23.49
2023-09-15T19:47:21.017Z,23.35
2023-09-15T19:52:26.224Z,22.42
2023-09-15T19:57:47.990Z,22.78
2023-09-15T20:02:52.876Z,23.27
2023-09-15T20:07:56.907Z,22.67
2023-09-15T20:12:59.088Z,22.47
2023-09-15T20:18:01.630Z,22.80
2023-09-15T20:23:04.759Z,22.31
2023-09-15T20:28:07.043Z,22.27
2023-09-15T20:33:09.326Z,22.43
2023-09-15T20:38:11.626Z,22.49
2023-09-15T20:43:14.425Z,22.60
2023-09-15T20:48:16.658Z,22.52
2023-09-15T20:53:18.865Z,22.73
2023-09-15T20:58:21.086Z,22.31
2023-09-15T21:03:23.346Z,22.11
2023-09-15T21:08:25.561Z,21.56
2023-09-15T21:13:27.739Z,21.13
2023-09-15T21:18:30.077Z,21.03
2023-09-15T21:23:32.234Z,20.82
2023-09-15T21:28:34.514Z,21.15
2023-09-15T21:33:38.721Z,21.50
2023-09-15T21:38:41.086Z,21.46
2023-09-15T21:43:43.426Z,21.09
2023-09-15T21:48:45.771Z,20.42
2023-09-15T21:53:48.144Z,20.33
2023-09-15T21:58:51.004Z,20.38
2023-09-15T22:03:53.442Z,20.96
2023-09-15T22:08:55.969Z,21.74
2023-09-15T22:13:58.240Z,22.36
2023-09-15T22:19:00.524Z,22.85
2023-09-15T22:24:02.725Z,23.22
2023-09-15T22:29:05.206Z,23.49
2023-09-15T22:34:08.056Z,23.43
2023-09-15T22:39:10.374Z,22.76
2023-09-15T22:44:12.502Z,21.73
2023-09-15T22:49:19.214Z,22.17
2023-09-15T22:54:21.381Z,22.68
2023-09-15T22:59:23.604Z,22.65
2023-09-15T23:04:25.807Z,22.88
2023-09-15T23:09:28.159Z,23.19
2023-09-15T23:14:30.334Z,23.30
2023-09-15T23:19:35.622Z,22.97
2023-09-15T23:24:40.617Z,22.93
2023-09-15T23:29:42.870Z,23.38
2023-09-15T23:34:45.365Z,23.77
2023-09-15T23:39:47.721Z,23.23
2023-09-15T23:44:49.856Z,22.88
2023-09-15T23:49:53.438Z,21.18
2023-09-15T23:54:55.663Z,20.43
2023-09-15T23:59:58.234Z,20.46
